createdAt,value
2017-10-07T00:00:27.238Z,8.39
2017-10-07T00:01:39.409Z,8.35
2017-10-07T00:02:51.891Z,8.42
2017-10-07T00:04:04.378Z,8.46
2017-10-07T00:05:16.860Z,8.49
2017-10-07T00:06:29.342Z,8.49
2017-10-07T00:07:41.224Z,8.5
2017-10-07T00:08:53.707Z,8.5
2017-10-07T00:10:05.904Z,8.41
2017-10-07T00:11:18.388Z,8.44
2017-10-07T00:12:30.873Z,8.41
2017-10-07T00:13:43.366Z,8.46
2017-10-07T00:14:55.561Z,8.39
2017-10-07T00:16:08.045Z,8.39
2017-10-07T00:17:20.528Z,8.42
2017-10-07T00:18:32.424Z,8.38
2017-10-07T00:19:44.919Z,8.36
2017-10-07T00:20:57.102Z,8.38
2017-10-07T00:22:09.273Z,8.38
2017-10-07T00:23:21.439Z,8.39
2017-10-07T00:24:33.626Z,8.46
2017-10-07T00:25:46.130Z,8.38
2017-10-07T00:26:58.603Z,8.35
2017-10-07T00:28:11.076Z,8.39
2017-10-07T00:29:23.545Z,8.38
2017-10-07T00:30:35.714Z,8.36
2017-10-07T00:31:47.885Z,8.5
2017-10-07T00:33:00.058Z,8.49
2017-10-07T00:34:12.227Z,8.46
2017-10-07T00:35:24.713Z,8.5
2017-10-07T00:36:36.593Z,8.44
2017-10-07T00:37:48.762Z,8.41
2017-10-07T00:39:01.249Z,8.52
2017-10-07T00:40:13.731Z,8.44
2017-10-07T00:41:25.916Z,8.54
2017-10-07T00:42:37.195Z,8.44
2017-10-07T00:43:49.365Z,8.53
2017-10-07T00:45:01.871Z,8.53
2017-10-07T00:46:14.373Z,8.54
2017-10-07T00:47:26.869Z,8.57
2017-10-07T00:48:39.364Z,8.46
2017-10-07T00:49:51.860Z,8.5
2017-10-07T00:51:04.356Z,8.6
2017-10-07T00:52:16.851Z,8.6
2017-10-07T00:53:29.354Z,8.69
2017-10-07T00:54:41.529Z,8.61
2017-10-07T00:55:53.997Z,8.68
2017-10-07T00:57:04.945Z,8.63
2017-10-07T00:58:17.113Z,8.68
2017-10-07T00:59:29.625Z,8.63
2017-10-07T01:00:41.496Z,8.68
2017-10-07T01:01:54.000Z,8.72
2017-10-07T01:03:06.475Z,8.77
2017-10-07T01:04:18.340Z,8.77
2017-10-07T01:05:30.813Z,8.75
2017-10-07T01:06:43.287Z,8.82
2017-10-07T01:07:54.853Z,8.74
2017-10-07T01:09:07.339Z,8.84
2017-10-07T01:10:19.511Z,8.9
2017-10-07T01:11:31.989Z,8.84
2017-10-07T01:12:43.888Z,8.82
2017-10-07T01:13:56.386Z,8.9
2017-10-07T01:15:08.556Z,8.97
2017-10-07T01:16:21.039Z,8.96
2017-10-07T01:17:33.522Z,8.99
2017-10-07T01:18:46.006Z,9.02
2017-10-07T01:19:58.501Z,9.03
2017-10-07T01:21:11.035Z,9.05
2017-10-07T01:22:23.632Z,9.12
2017-10-07T01:23:36.229Z,9.11
2017-10-07T01:24:47.897Z,9.13
2017-10-07T01:26:00.515Z,9.15
2017-10-07T01:27:12.789Z,9.18
2017-10-07T01:28:25.385Z,9.13
2017-10-07T01:29:37.987Z,9.16
2017-10-07T01:30:50.576Z,9.24
2017-10-07T01:32:03.173Z,9.16
2017-10-07T01:33:15.769Z,9.16
2017-10-07T01:34:28.366Z,9.21
2017-10-07T01:35:40.651Z,9.29
2017-10-07T01:36:52.934Z,9.27
2017-10-07T01:38:05.529Z,9.29
2017-10-07T01:39:18.124Z,9.29
2017-10-07T01:40:30.718Z,9.27
2017-10-07T01:41:43.311Z,9.31
2017-10-07T01:42:55.582Z,9.31
2017-10-07T01:44:08.180Z,9.3
2017-10-07T01:45:20.167Z,9.31
2017-10-07T01:46:32.444Z,9.31
2017-10-07T01:47:45.040Z,9.34
2017-10-07T01:48:57.311Z,9.42
2017-10-07T01:50:09.582Z,9.45
2017-10-07T01:51:21.853Z,9.49
2017-10-07T01:52:34.150Z,9.52
2017-10-07T01:53:46.744Z,9.51
2017-10-07T01:54:58.705Z,9.49
2017-10-07T01:56:10.659Z,9.49
2017-10-07T01:57:22.633Z,9.49
2017-10-07T01:58:35.226Z,9.51
2017-10-07T01:59:47.501Z,9.51
2017-10-07T02:01:00.093Z,9.55
2017-10-07T02:02:12.657Z,9.52
2017-10-07T02:03:24.827Z,9.56
2017-10-07T02:04:37.009Z,9.55
2017-10-07T02:05:48.574Z,9.56
2017-10-07T02:07:01.056Z,9.58
2017-10-07T02:08:12.913Z,9.59
2017-10-07T02:09:25.383Z,9.63
2017-10-07T02:10:37.857Z,9.64
2017-10-07T02:11:49.722Z,9.62
2017-10-07T02:13:02.194Z,9.59
2017-10-07T02:14:14.064Z,9.62
2017-10-07T02:15:25.941Z,9.66
2017-10-07T02:16:38.121Z,9.62
2017-10-07T02:17:50.306Z,9.67
2017-10-07T02:19:02.496Z,9.67
2017-10-07T02:20:14.672Z,9.69
2017-10-07T02:21:26.838Z,9.69
2017-10-07T02:22:39.010Z,9.72
2017-10-07T02:23:51.484Z,9.76
2017-10-07T02:25:03.974Z,9.74
2017-10-07T02:26:16.150Z,9.72
2017-10-07T02:27:28.046Z,9.73
2017-10-07T02:28:40.215Z,9.74
2017-10-07T02:29:52.699Z,9.72
2017-10-07T02:31:05.182Z,9.74
2017-10-07T02:32:17.665Z,9.74
2017-10-07T02:33:29.536Z,9.74
2017-10-07T02:34:41.714Z,9.76
2017-10-07T02:35:53.610Z,9.72
2017-10-07T02:37:05.808Z,9.76
2017-10-07T02:38:17.718Z,9.77
2017-10-07T02:39:29.598Z,9.72
2017-10-07T02:40:42.093Z,9.8
2017-10-07T02:41:54.281Z,9.7
2017-10-07T02:43:06.151Z,9.7
2017-10-07T02:44:18.334Z,9.82
2017-10-07T02:45:30.817Z,9.77
2017-10-07T02:46:43.313Z,9.8
2017-10-07T02:47:55.792Z,9.77
2017-10-07T02:49:07.964Z,9.8
2017-10-07T02:50:20.138Z,9.82
2017-10-07T02:51:32.321Z,9.76
2017-10-07T02:52:44.524Z,9.82
2017-10-07T02:53:57.012Z,9.85
2017-10-07T02:55:09.190Z,9.84
2017-10-07T02:56:21.712Z,9.87
2017-10-07T02:57:34.199Z,9.88
2017-10-07T02:58:46.377Z,9.88
2017-10-07T02:59:58.548Z,9.87
2017-10-07T03:01:10.736Z,9.85
2017-10-07T03:02:23.219Z,9.9
2017-10-07T03:03:35.385Z,9.88
2017-10-07T03:04:47.560Z,9.88
2017-10-07T03:05:59.731Z,9.92
2017-10-07T03:07:11.597Z,9.85
2017-10-07T03:08:24.073Z,9.91
2017-10-07T03:09:36.555Z,9.9
2017-10-07T03:10:48.435Z,9.9
2017-10-07T03:12:00.910Z,9.87
2017-10-07T03:13:13.393Z,9.92
2017-10-07T03:14:25.251Z,9.94
2017-10-07T03:15:37.724Z,9.92
2017-10-07T03:16:48.966Z,9.92
2017-10-07T03:18:01.439Z,9.94
2017-10-07T03:19:13.621Z,9.95
2017-10-07T03:20:26.116Z,9.92
2017-10-07T03:21:38.288Z,9.94
2017-10-07T03:22:50.467Z,9.94
2017-10-07T03:24:02.961Z,9.94
2017-10-07T03:25:15.158Z,9.91
2017-10-07T03:26:27.930Z,9.99
2017-10-07T03:27:40.402Z,10
2017-10-07T03:28:52.572Z,10.03
2017-10-07T03:30:04.742Z,9.99
2017-10-07T03:31:17.239Z,10.02
2017-10-07T03:32:29.409Z,10
2017-10-07T03:33:41.893Z,10.02
2017-10-07T03:34:54.377Z,10.02
2017-10-07T03:36:06.874Z,9.95
2017-10-07T03:37:19.342Z,9.95
2017-10-07T03:38:31.810Z,10
2017-10-07T03:39:43.982Z,9.95
2017-10-07T03:40:56.467Z,10.1
2017-10-07T03:42:08.652Z,9.99
2017-10-07T03:43:20.534Z,9.99
2017-10-07T03:44:33.013Z,9.97
2017-10-07T03:45:45.500Z,10.1
2017-10-07T03:46:57.671Z,10.06
2017-10-07T03:48:09.842Z,10.1
2017-10-07T03:49:22.045Z,10.15
2017-10-07T03:50:34.532Z,10.06
2017-10-07T03:51:46.761Z,10.06
2017-10-07T03:52:58.952Z,10.1
2017-10-07T03:54:11.445Z,10.1
2017-10-07T03:55:23.323Z,10.09
2017-10-07T03:56:35.802Z,10.18
2017-10-07T03:57:47.063Z,10.13
2017-10-07T03:58:59.252Z,10.17
2017-10-07T04:00:11.431Z,10.12
2017-10-07T04:01:23.306Z,10.06
2017-10-07T04:02:35.797Z,10.17
2017-10-07T04:03:47.667Z,10.17
2017-10-07T04:05:00.141Z,10.13
2017-10-07T04:06:12.009Z,10.17
2017-10-07T04:07:24.202Z,10.1
2017-10-07T04:08:36.681Z,10.17
2017-10-07T04:09:48.863Z,10.17
2017-10-07T04:11:01.361Z,10.13
2017-10-07T04:12:13.241Z,10.17
2017-10-07T04:13:25.713Z,10.12
2017-10-07T04:14:37.884Z,10.13
2017-10-07T04:15:50.050Z,10.21
2017-10-07T04:17:02.537Z,10.18
2017-10-07T04:18:14.719Z,10.18
2017-10-07T04:19:26.886Z,10.09
2017-10-07T04:20:39.060Z,10.15
2017-10-07T04:21:51.531Z,10.1
2017-10-07T04:23:04.015Z,10.12
2017-10-07T04:24:16.511Z,10.13
2017-10-07T04:25:28.994Z,10.12
2017-10-07T04:26:40.878Z,10.3
2017-10-07T04:27:53.359Z,10.13
2017-10-07T04:29:05.829Z,10.15
2017-10-07T04:30:17.418Z,10.18
2017-10-07T04:31:29.610Z,10.09
2017-10-07T04:32:41.792Z,10.18
2017-10-07T04:33:54.267Z,10.2
2017-10-07T04:35:06.780Z,10.2
2017-10-07T04:36:18.949Z,10.12
2017-10-07T04:37:31.426Z,10.12
2017-10-07T04:38:43.595Z,10.06
2017-10-07T04:39:56.088Z,10.09
2017-10-07T04:41:07.336Z,10.1
2017-10-07T04:42:19.508Z,10.17
2017-10-07T04:43:31.999Z,10.12
2017-10-07T04:44:44.188Z,10.2
2017-10-07T04:45:56.665Z,10.1
2017-10-07T04:47:08.538Z,10.15
2017-10-07T04:48:20.711Z,10.13
2017-10-07T04:49:33.196Z,10.23
2017-10-07T04:50:45.397Z,10.23
2017-10-07T04:51:57.261Z,10.13
2017-10-07T04:53:09.757Z,10.17
2017-10-07T04:54:21.937Z,10.17
2017-10-07T04:55:34.410Z,10.12
2017-10-07T04:56:46.893Z,10.1
2017-10-07T04:57:59.375Z,10.1
2017-10-07T04:59:11.856Z,10.15
2017-10-07T05:00:24.031Z,10.17
2017-10-07T05:01:36.509Z,10.1
2017-10-07T05:02:48.997Z,10.17
2017-10-07T05:04:01.200Z,10.12
2017-10-07T05:05:13.376Z,10.1
2017-10-07T05:06:25.848Z,10.17
2017-10-07T05:07:38.316Z,10.18
2017-10-07T05:08:50.800Z,10.06
2017-10-07T05:10:03.278Z,10.09
2017-10-07T05:11:15.154Z,10.13
2017-10-07T05:12:27.637Z,10.1
2017-10-07T05:13:40.118Z,10.15
2017-10-07T05:14:52.317Z,10.18
2017-10-07T05:16:04.487Z,10.17
2017-10-07T05:17:16.994Z,10.1
2017-10-07T05:18:28.865Z,10.13
2017-10-07T05:19:41.044Z,10.09
2017-10-07T05:20:53.546Z,10.1
2017-10-07T05:22:06.038Z,10.12
2017-10-07T05:23:17.911Z,10.15
2017-10-07T05:24:30.118Z,10.12
2017-10-07T05:25:42.289Z,10.1
2017-10-07T05:26:54.773Z,10.12
2017-10-07T05:28:07.243Z,10.1
2017-10-07T05:29:19.712Z,10.09
2017-10-07T05:30:31.882Z,10.1
2017-10-07T05:31:44.368Z,10.12
2017-10-07T05:32:56.850Z,10.15
2017-10-07T05:34:09.336Z,10.15
2017-10-07T05:35:21.815Z,10.15
2017-10-07T05:36:34.287Z,10.09
2017-10-07T05:37:46.457Z,10.1
2017-10-07T05:38:58.626Z,10.17
2017-10-07T05:40:10.812Z,10.03
2017-10-07T05:41:23.295Z,10.15
2017-10-07T05:42:35.478Z,10.18
2017-10-07T05:43:47.656Z,10.17
2017-10-07T05:44:59.526Z,10.17
2017-10-07T05:46:12.002Z,10.17
2017-10-07T05:47:24.473Z,10.15
2017-10-07T05:48:36.356Z,10.15
2017-10-07T05:49:48.852Z,10.15
2017-10-07T05:51:00.710Z,10.06
2017-10-07T05:52:12.876Z,10.24
2017-10-07T05:53:25.350Z,10.18
2017-10-07T05:54:37.835Z,10.2
2017-10-07T05:55:50.012Z,10.17
2017-10-07T05:57:02.501Z,10.24
2017-10-07T05:58:14.381Z,10.21
2017-10-07T05:59:26.567Z,10.24
2017-10-07T06:00:39.045Z,10.31
2017-10-07T06:01:51.520Z,10.3
2017-10-07T06:03:04.029Z,10.3
2017-10-07T06:04:16.510Z,10.23
2017-10-07T06:05:28.705Z,10.27
2017-10-07T06:06:41.223Z,10.3
2017-10-07T06:07:53.400Z,10.25
2017-10-07T06:09:06.120Z,10.31
2017-10-07T06:10:18.327Z,10.36
2017-10-07T06:11:29.582Z,10.43
2017-10-07T06:12:41.777Z,10.27
2017-10-07T06:13:53.348Z,10.36
2017-10-07T06:15:05.544Z,10.34
2017-10-07T06:16:17.713Z,10.34
2017-10-07T06:17:29.586Z,10.34
2017-10-07T06:18:42.073Z,10.24
2017-10-07T06:19:54.551Z,10.39
2017-10-07T06:21:07.047Z,10.33
2017-10-07T06:22:19.218Z,10.41
2017-10-07T06:23:31.705Z,10.41
2017-10-07T06:24:43.876Z,10.36
2017-10-07T06:25:56.056Z,10.24
2017-10-07T06:27:08.242Z,10.33
2017-10-07T06:28:20.123Z,10.36
2017-10-07T06:29:32.308Z,10.39
2017-10-07T06:30:44.478Z,10.39
2017-10-07T06:31:56.957Z,10.42
2017-10-07T06:33:09.434Z,10.48
2017-10-07T06:34:21.299Z,10.43
2017-10-07T06:35:33.498Z,10.57
2017-10-07T06:36:45.670Z,10.48
2017-10-07T06:37:58.140Z,10.53
2017-10-07T06:39:10.031Z,10.57
2017-10-07T06:40:21.903Z,10.57
2017-10-07T06:41:34.344Z,10.57
2017-10-07T06:42:46.524Z,10.58
2017-10-07T06:43:58.106Z,10.64
2017-10-07T06:45:09.985Z,10.65
2017-10-07T06:46:22.161Z,10.64
2017-10-07T06:47:34.344Z,10.67
2017-10-07T06:48:46.525Z,10.62
2017-10-07T06:49:59.009Z,10.65
2017-10-07T06:51:11.494Z,10.65
2017-10-07T06:52:22.439Z,10.68
2017-10-07T06:53:34.622Z,10.67
2017-10-07T06:54:47.105Z,10.68
2017-10-07T06:55:59.577Z,10.71
2017-10-07T06:57:11.742Z,10.65
2017-10-07T06:58:24.214Z,10.67
2017-10-07T06:59:36.085Z,10.67
2017-10-07T07:00:47.958Z,10.68
2017-10-07T07:02:00.441Z,10.61
2017-10-07T07:03:12.325Z,10.62
2017-10-07T07:04:24.807Z,10.71
2017-10-07T07:05:37.328Z,10.67
2017-10-07T07:06:49.207Z,10.69
2017-10-07T07:08:01.723Z,10.75
2017-10-07T07:09:13.926Z,10.79
2017-10-07T07:10:25.796Z,10.77
2017-10-07T07:11:37.665Z,10.8
2017-10-07T07:12:50.141Z,10.82
2017-10-07T07:14:02.630Z,10.8
2017-10-07T07:15:14.218Z,10.82
2017-10-07T07:16:26.702Z,10.82
2017-10-07T07:17:38.592Z,10.82
2017-10-07T07:18:50.763Z,10.83
2017-10-07T07:20:02.940Z,10.76
2017-10-07T07:21:14.810Z,10.8
2017-10-07T07:22:26.994Z,10.76
2017-10-07T07:23:39.488Z,10.75
2017-10-07T07:24:51.984Z,10.79
2017-10-07T07:26:04.480Z,10.86
2017-10-07T07:27:16.971Z,10.76
2017-10-07T07:28:28.554Z,10.76
2017-10-07T07:29:41.042Z,10.77
2017-10-07T07:30:52.920Z,10.79
2017-10-07T07:32:05.110Z,10.84
2017-10-07T07:33:16.386Z,10.82
2017-10-07T07:34:28.557Z,10.84
2017-10-07T07:35:41.045Z,10.8
2017-10-07T07:36:53.231Z,10.79
2017-10-07T07:38:05.411Z,11.01
2017-10-07T07:39:16.365Z,10.94
2017-10-07T07:40:28.573Z,10.98
2017-10-07T07:41:41.073Z,11.02
2017-10-07T07:42:53.269Z,11.12
2017-10-07T07:44:05.464Z,11.01
2017-10-07T07:45:17.048Z,11.12
2017-10-07T07:46:28.918Z,11.16
2017-10-07T07:47:41.409Z,11.08
2017-10-07T07:48:53.897Z,11.15
2017-10-07T07:50:06.392Z,11.13
2017-10-07T07:51:17.972Z,11.19
2017-10-07T07:52:29.843Z,11.19
2017-10-07T07:53:42.029Z,11.16
2017-10-07T07:54:54.213Z,11.23
2017-10-07T07:56:06.404Z,11.26
2017-10-07T07:57:18.280Z,11.27
2017-10-07T07:58:30.770Z,11.27
2017-10-07T07:59:42.967Z,11.37
2017-10-07T08:00:55.156Z,11.4
2017-10-07T08:02:07.649Z,11.45
2017-10-07T08:03:19.828Z,11.51
2017-10-07T08:04:32.301Z,11.49
2017-10-07T08:05:44.169Z,11.6
2017-10-07T08:06:56.664Z,11.52
2017-10-07T08:08:08.837Z,11.56
2017-10-07T08:09:21.323Z,11.63
2017-10-07T08:10:33.227Z,11.7
2017-10-07T08:11:44.498Z,11.67
2017-10-07T08:12:56.685Z,11.71
2017-10-07T08:14:08.568Z,11.73
2017-10-07T08:15:21.059Z,11.78
2017-10-07T08:16:32.630Z,11.78
2017-10-07T08:17:44.806Z,11.83
2017-10-07T08:18:57.538Z,11.88
2017-10-07T08:20:09.720Z,11.86
2017-10-07T08:21:21.589Z,11.83
2017-10-07T08:22:33.463Z,12.02
2017-10-07T08:23:45.347Z,11.99
2017-10-07T08:24:57.549Z,12
2017-10-07T08:26:09.747Z,11.97
2017-10-07T08:27:22.240Z,12.1
2017-10-07T08:28:34.729Z,11.97
2017-10-07T08:29:46.613Z,12.02
2017-10-07T08:30:58.787Z,12.07
2017-10-07T08:32:11.291Z,12
2017-10-07T08:33:23.786Z,12.07
2017-10-07T08:34:36.270Z,12.05
2017-10-07T08:35:48.136Z,12.03
2017-10-07T08:37:00.331Z,12.1
2017-10-07T08:38:12.519Z,12.03
2017-10-07T08:39:24.697Z,12.07
2017-10-07T08:40:37.185Z,12.15
2017-10-07T08:41:49.681Z,12.25
2017-10-07T08:43:02.185Z,12.32
2017-10-07T08:44:14.055Z,12.26
2017-10-07T08:45:25.926Z,12.33
2017-10-07T08:46:38.401Z,12.39
2017-10-07T08:47:50.574Z,12.43
2017-10-07T08:49:02.739Z,12.53
2017-10-07T08:50:14.309Z,12.5
2017-10-07T08:51:26.482Z,12.57
2017-10-07T08:52:38.667Z,12.54
2017-10-07T08:53:50.872Z,12.66
2017-10-07T08:55:02.733Z,12.54
2017-10-07T08:56:14.618Z,12.66
2017-10-07T08:57:27.108Z,12.7
2017-10-07T08:58:39.620Z,12.68
2017-10-07T08:59:52.105Z,12.66
2017-10-07T09:01:04.587Z,12.65
2017-10-07T09:02:16.471Z,12.8
2017-10-07T09:03:28.640Z,12.75
2017-10-07T09:04:40.198Z,12.76
2017-10-07T09:05:52.404Z,12.81
2017-10-07T09:07:04.923Z,12.81
2017-10-07T09:08:16.794Z,12.76
2017-10-07T09:09:28.983Z,12.81
2017-10-07T09:10:41.477Z,12.75
2017-10-07T09:11:53.375Z,12.75
2017-10-07T09:13:05.600Z,12.78
2017-10-07T09:14:16.846Z,12.75
2017-10-07T09:15:29.335Z,12.84
2017-10-07T09:16:41.838Z,12.76
2017-10-07T09:17:54.025Z,12.81
2017-10-07T09:19:06.197Z,12.83
2017-10-07T09:20:18.692Z,12.8
2017-10-07T09:21:31.170Z,12.8
2017-10-07T09:22:43.658Z,12.78
2017-10-07T09:23:56.154Z,12.72
2017-10-07T09:25:08.657Z,12.7
2017-10-07T09:26:20.234Z,12.8
2017-10-07T09:27:32.116Z,12.78
2017-10-07T09:28:43.986Z,12.72
2017-10-07T09:29:56.483Z,12.78
2017-10-07T09:31:08.986Z,12.76
2017-10-07T09:32:21.480Z,12.76
2017-10-07T09:33:33.369Z,12.7
2017-10-07T09:34:45.876Z,12.75
2017-10-07T09:35:58.047Z,12.87
2017-10-07T09:37:09.918Z,12.84
2017-10-07T09:38:21.203Z,13.03
2017-10-07T09:39:32.780Z,12.99
2017-10-07T09:40:44.669Z,13.24
2017-10-07T09:41:57.150Z,13.26
2017-10-07T09:43:09.360Z,13.36
2017-10-07T09:44:21.281Z,13.33
2017-10-07T09:45:33.483Z,13.45
2017-10-07T09:46:45.683Z,13.46
2017-10-07T09:47:57.568Z,13.45
2017-10-07T09:49:09.771Z,13.47
2017-10-07T09:50:21.958Z,13.46
2017-10-07T09:51:33.537Z,13.52
2017-10-07T09:52:46.014Z,13.54
2017-10-07T09:53:57.897Z,13.55
2017-10-07T09:55:10.098Z,13.49
2017-10-07T09:56:22.295Z,13.55
2017-10-07T09:57:34.770Z,13.57
2017-10-07T09:58:47.287Z,13.58
2017-10-07T09:59:59.781Z,13.52
2017-10-07T10:01:11.653Z,13.47
2017-10-07T10:02:22.923Z,13.46
2017-10-07T10:03:35.409Z,13.43
2017-10-07T10:04:47.582Z,13.39
2017-10-07T10:05:59.764Z,13.39
2017-10-07T10:07:11.348Z,13.43
2017-10-07T10:08:23.232Z,13.36
2017-10-07T10:09:35.403Z,13.37
2017-10-07T10:10:47.272Z,13.33
2017-10-07T10:11:59.456Z,13.27
2017-10-07T10:13:11.626Z,13.33
2017-10-07T10:14:23.509Z,13.31
2017-10-07T10:15:35.992Z,13.33
2017-10-07T10:16:48.175Z,13.33
2017-10-07T10:18:00.961Z,13.42
2017-10-07T10:19:13.163Z,13.4
2017-10-07T10:20:24.450Z,13.45
2017-10-07T10:21:36.021Z,13.49
2017-10-07T10:22:48.216Z,13.49
2017-10-07T10:24:00.712Z,13.5
2017-10-07T10:25:12.911Z,13.58
2017-10-07T10:26:25.404Z,13.6
2017-10-07T10:27:37.586Z,13.55
2017-10-07T10:28:49.758Z,13.75
2017-10-07T10:30:02.255Z,13.67
2017-10-07T10:31:14.436Z,13.61
2017-10-07T10:32:26.317Z,13.68
2017-10-07T10:33:38.234Z,13.76
2017-10-07T10:34:50.712Z,13.65
2017-10-07T10:36:03.193Z,13.7
2017-10-07T10:37:15.072Z,13.55
2017-10-07T10:38:26.643Z,13.62
2017-10-07T10:39:39.118Z,13.55
2017-10-07T10:40:50.989Z,13.54
2017-10-07T10:42:03.155Z,13.49
2017-10-07T10:43:15.030Z,13.33
2017-10-07T10:44:27.201Z,13.39
2017-10-07T10:45:39.072Z,13.23
2017-10-07T10:46:50.955Z,13.23
2017-10-07T10:48:03.158Z,13.13
2017-10-07T10:49:15.346Z,13.23
2017-10-07T10:50:27.841Z,13.09
2017-10-07T10:51:40.025Z,13.06
2017-10-07T10:52:52.208Z,13.02
2017-10-07T10:54:04.412Z,12.95
2017-10-07T10:55:16.932Z,12.86
2017-10-07T10:56:28.808Z,12.87
2017-10-07T10:57:41.290Z,12.76
2017-10-07T10:58:53.175Z,12.68
2017-10-07T11:00:05.360Z,12.73
2017-10-07T11:01:17.489Z,12.66
2017-10-07T11:02:29.658Z,12.69
2017-10-07T11:03:41.843Z,12.69
2017-10-07T11:04:54.339Z,12.61
2017-10-07T11:06:06.819Z,12.68
2017-10-07T11:07:18.691Z,12.69
2017-10-07T11:08:30.864Z,12.54
2017-10-07T11:09:43.047Z,12.53
2017-10-07T11:10:55.231Z,12.62
2017-10-07T11:12:07.699Z,12.57
2017-10-07T11:13:19.571Z,12.53
2017-10-07T11:14:31.743Z,12.55
2017-10-07T11:15:43.633Z,12.58
2017-10-07T11:16:55.529Z,12.55
2017-10-07T11:18:07.717Z,12.55
2017-10-07T11:19:19.622Z,12.51
2017-10-07T11:20:31.808Z,12.54
2017-10-07T11:21:43.992Z,12.54
2017-10-07T11:22:56.782Z,12.55
2017-10-07T11:24:08.970Z,12.57
2017-10-07T11:25:21.174Z,12.65
2017-10-07T11:26:33.362Z,12.57
2017-10-07T11:27:45.249Z,12.68
2017-10-07T11:28:57.727Z,12.69
2017-10-07T11:30:09.910Z,12.66
2017-10-07T11:31:22.402Z,12.72
2017-10-07T11:32:33.976Z,12.73
2017-10-07T11:33:45.843Z,12.72
2017-10-07T11:34:58.019Z,12.83
2017-10-07T11:36:10.191Z,12.83
2017-10-07T11:37:22.671Z,12.98
2017-10-07T11:38:34.554Z,13.05
2017-10-07T11:39:46.726Z,13.16
2017-10-07T11:40:59.217Z,13.19
2017-10-07T11:42:11.417Z,13.17
2017-10-07T11:43:23.913Z,13.16
2017-10-07T11:44:36.417Z,13.23
2017-10-07T11:45:48.941Z,13.27
2017-10-07T11:47:01.437Z,13.31
2017-10-07T11:48:13.643Z,13.4
2017-10-07T11:49:25.817Z,13.46
2017-10-07T11:50:38.299Z,13.45
2017-10-07T11:51:50.803Z,13.5
2017-10-07T11:53:02.999Z,13.45
2017-10-07T11:54:15.194Z,13.46
2017-10-07T11:55:27.682Z,13.45
2017-10-07T11:56:39.867Z,13.47
2017-10-07T11:57:51.436Z,13.52
2017-10-07T11:59:03.319Z,13.49
2017-10-07T12:00:14.900Z,13.58
2017-10-07T12:01:27.384Z,13.55
2017-10-07T12:02:39.889Z,13.55
2017-10-07T12:03:52.084Z,13.64
2017-10-07T12:05:03.334Z,13.68
2017-10-07T12:06:14.671Z,13.68
2017-10-07T12:07:26.264Z,13.71
2017-10-07T12:08:38.759Z,13.79
2017-10-07T12:09:50.642Z,13.73
2017-10-07T12:11:03.150Z,13.85
2017-10-07T12:12:15.330Z,13.8
2017-10-07T12:13:27.520Z,13.82
2017-10-07T12:14:39.713Z,13.82
2017-10-07T12:15:51.896Z,13.83
2017-10-07T12:17:04.386Z,13.8
2017-10-07T12:18:16.574Z,13.8
2017-10-07T12:19:29.070Z,13.83
2017-10-07T12:20:41.274Z,13.82
2017-10-07T12:21:53.761Z,13.83
2017-10-07T12:23:05.944Z,13.78
2017-10-07T12:24:18.436Z,13.7
2017-10-07T12:25:30.624Z,13.75
2017-10-07T12:26:43.119Z,13.65
2017-10-07T12:27:55.615Z,13.68
2017-10-07T12:29:08.117Z,13.64
2017-10-07T12:30:20.657Z,13.67
2017-10-07T12:31:32.539Z,13.55
2017-10-07T12:32:44.706Z,13.6
2017-10-07T12:33:57.201Z,13.58
2017-10-07T12:35:09.697Z,13.54
2017-10-07T12:36:22.194Z,13.54
2017-10-07T12:37:33.468Z,13.5
2017-10-07T12:38:46.251Z,13.47
2017-10-07T12:39:58.429Z,13.5
2017-10-07T12:41:10.918Z,13.46
2017-10-07T12:42:23.427Z,13.55
2017-10-07T12:43:35.316Z,13.52
2017-10-07T12:44:47.504Z,13.43
2017-10-07T12:46:00.002Z,13.46
2017-10-07T12:47:12.195Z,13.5
2017-10-07T12:48:24.074Z,13.57
2017-10-07T12:49:35.964Z,13.52
2017-10-07T12:50:48.158Z,13.58
2017-10-07T12:52:00.342Z,13.54
2017-10-07T12:53:12.824Z,13.57
2017-10-07T12:54:25.320Z,13.57
2017-10-07T12:55:37.822Z,13.54
2017-10-07T12:56:50.310Z,13.5
2017-10-07T12:58:02.806Z,13.49
2017-10-07T12:59:14.701Z,13.55
2017-10-07T13:00:27.198Z,13.49
2017-10-07T13:01:39.692Z,13.52
2017-10-07T13:02:51.888Z,13.5
2017-10-07T13:04:04.409Z,13.55
2017-10-07T13:05:16.594Z,13.57
2017-10-07T13:06:29.076Z,13.5
2017-10-07T13:07:40.955Z,13.49
2017-10-07T13:08:53.430Z,13.58
2017-10-07T13:10:05.295Z,13.52
2017-10-07T13:11:16.866Z,13.47
2017-10-07T13:12:29.054Z,13.43
2017-10-07T13:13:40.949Z,13.42
2017-10-07T13:14:52.834Z,13.33
2017-10-07T13:16:04.717Z,13.36
2017-10-07T13:17:16.594Z,13.28
2017-10-07T13:18:28.783Z,13.33
2017-10-07T13:19:40.986Z,13.23
2017-10-07T13:20:53.157Z,13.17
2017-10-07T13:22:05.344Z,13.12
2017-10-07T13:23:17.527Z,13.06
2017-10-07T13:24:30.011Z,13.09
2017-10-07T13:25:41.894Z,13.06
2017-10-07T13:26:53.778Z,12.95
2017-10-07T13:28:06.256Z,12.86
2017-10-07T13:29:18.751Z,12.73
2017-10-07T13:30:30.925Z,12.73
2017-10-07T13:31:43.109Z,12.73
2017-10-07T13:32:55.291Z,12.66
2017-10-07T13:34:07.765Z,12.66
2017-10-07T13:35:19.634Z,12.55
2017-10-07T13:36:31.825Z,12.43
2017-10-07T13:37:43.396Z,12.44
2017-10-07T13:38:55.571Z,12.36
2017-10-07T13:40:07.762Z,12.29
2017-10-07T13:41:19.675Z,12.21
2017-10-07T13:42:31.554Z,12.21
2017-10-07T13:43:44.041Z,12.2
2017-10-07T13:44:56.219Z,12.14
2017-10-07T13:46:08.707Z,12.15
2017-10-07T13:47:20.890Z,12.1
2017-10-07T13:48:33.085Z,12.1
2017-10-07T13:49:44.653Z,11.99
2017-10-07T13:50:56.827Z,12
2017-10-07T13:52:09.011Z,11.99
2017-10-07T13:53:20.890Z,11.91
2017-10-07T13:54:33.410Z,11.85
2017-10-07T13:55:45.285Z,11.81
2017-10-07T13:56:57.481Z,11.77
2017-10-07T13:58:09.663Z,11.7
2017-10-07T13:59:21.843Z,11.71
2017-10-07T14:00:34.031Z,11.74
2017-10-07T14:01:45.889Z,11.65
2017-10-07T14:02:58.373Z,11.51
2017-10-07T14:04:10.871Z,11.44
2017-10-07T14:05:23.052Z,11.45
2017-10-07T14:06:35.221Z,11.51
2017-10-07T14:07:47.714Z,11.43
2017-10-07T14:08:59.308Z,11.38
2017-10-07T14:10:11.795Z,11.34
2017-10-07T14:11:23.974Z,11.4
2017-10-07T14:12:36.451Z,11.34
2017-10-07T14:13:47.994Z,11.25
2017-10-07T14:14:59.862Z,11.23
2017-10-07T14:16:12.057Z,11.27
2017-10-07T14:17:23.931Z,11.19
2017-10-07T14:18:36.124Z,11.19
2017-10-07T14:19:48.636Z,11.16
2017-10-07T14:21:00.214Z,11.15
2017-10-07T14:22:11.802Z,11.19
2017-10-07T14:23:23.681Z,11.13
2017-10-07T14:24:35.856Z,11.04
2017-10-07T14:25:48.347Z,10.94
2017-10-07T14:27:00.519Z,11.02
2017-10-07T14:28:12.395Z,10.97
2017-10-07T14:29:24.562Z,11.02
2017-10-07T14:30:36.730Z,10.92
2017-10-07T14:31:48.601Z,11.02
2017-10-07T14:33:01.089Z,10.92
2017-10-07T14:34:12.666Z,10.92
2017-10-07T14:35:24.838Z,10.95
2017-10-07T14:36:37.034Z,10.98
2017-10-07T14:37:48.925Z,10.98
2017-10-07T14:39:00.501Z,11.01
2017-10-07T14:40:12.688Z,10.95
2017-10-07T14:41:24.565Z,10.9
2017-10-07T14:42:37.054Z,10.84
2017-10-07T14:43:49.531Z,10.79
2017-10-07T14:45:02.021Z,10.87
2017-10-07T14:46:14.199Z,10.82
2017-10-07T14:47:26.699Z,10.8
2017-10-07T14:48:39.171Z,10.8
2017-10-07T14:49:51.652Z,10.84
2017-10-07T14:51:03.832Z,10.9
2017-10-07T14:52:16.006Z,10.79
2017-10-07T14:53:27.572Z,10.8
2017-10-07T14:54:39.443Z,10.75
2017-10-07T14:55:51.613Z,10.75
2017-10-07T14:57:04.101Z,10.75
2017-10-07T14:58:16.597Z,10.79
2017-10-07T14:59:28.476Z,10.69
2017-10-07T15:00:40.952Z,10.68
2017-10-07T15:01:53.122Z,10.65
2017-10-07T15:03:05.613Z,10.65
2017-10-07T15:04:17.800Z,10.68
2017-10-07T15:05:29.672Z,10.65
2017-10-07T15:06:42.154Z,10.65
2017-10-07T15:07:54.363Z,10.65
2017-10-07T15:09:06.847Z,10.64
2017-10-07T15:10:19.078Z,10.68
2017-10-07T15:11:31.249Z,10.68
2017-10-07T15:12:43.131Z,10.59
2017-10-07T15:13:55.600Z,10.58
2017-10-07T15:15:07.472Z,10.55
2017-10-07T15:16:19.343Z,10.51
2017-10-07T15:17:31.861Z,10.49
2017-10-07T15:18:44.337Z,10.49
2017-10-07T15:19:56.193Z,10.46
2017-10-07T15:21:08.626Z,10.43
2017-10-07T15:22:20.798Z,10.42
2017-10-07T15:23:32.964Z,10.48
2017-10-07T15:24:44.841Z,10.42
2017-10-07T15:25:57.309Z,10.36
2017-10-07T15:27:08.875Z,10.43
2017-10-07T15:28:21.049Z,10.31
2017-10-07T15:29:32.641Z,10.33
2017-10-07T15:30:44.817Z,10.42
2017-10-07T15:31:56.686Z,10.36
2017-10-07T15:33:09.199Z,10.36
2017-10-07T15:34:21.074Z,10.31
2017-10-07T15:35:33.561Z,10.31
2017-10-07T15:36:45.441Z,10.3
2017-10-07T15:37:57.931Z,10.27
2017-10-07T15:39:10.107Z,10.34
2017-10-07T15:40:22.278Z,10.31